sensor_id;sensor_type;location;lat;lon;timestamp;pressure;altitude;pressure_sealevel;temperature;humidity
42727;BME280;28372;56.832;60.658;2022-08-20T00:01:15;98965.84;;;19.28;56.21
42727;BME280;28372;56.832;60.658;2022-08-20T00:03:43;98970.56;;;19.27;56.48
42727;BME280;28372;56.832;60.658;2022-08-20T00:06:22;98970.09;;;19.36;57.08
42727;BME280;28372;56.832;60.658;2022-08-20T00:08:50;98967.78;;;19.31;55.85
42727;BME280;28372;56.832;60.658;2022-08-20T00:11:22;98953.66;;;19.36;56.38
42727;BME280;28372;56.832;60.658;2022-08-20T00:13:56;98963.03;;;19.39;57.92
42727;BME280;28372;56.832;60.658;2022-08-20T00:16:26;98961.09;;;19.35;57.79
42727;BME280;28372;56.832;60.658;2022-08-20T00:18:55;98959.97;;;19.26;57.15
42727;BME280;28372;56.832;60.658;2022-08-20T00:21:23;98955.69;;;19.25;56.78
42727;BME280;28372;56.832;60.658;2022-08-20T00:23:54;98961.13;;;19.28;56.98
42727;BME280;28372;56.832;60.658;2022-08-20T00:26:23;98964.28;;;19.27;57.77
42727;BME280;28372;56.832;60.658;2022-08-20T00:28:51;98961.19;;;19.21;57.60
42727;BME280;28372;56.832;60.658;2022-08-20T00:31:21;98969.41;;;19.21;58.00
42727;BME280;28372;56.832;60.658;2022-08-20T00:33:51;98969.44;;;19.14;56.40
42727;BME280;28372;56.832;60.658;2022-08-20T00:36:20;98962.38;;;19.16;57.39
42727;BME280;28372;56.832;60.658;2022-08-20T00:38:58;98965.91;;;19.17;57.52
42727;BME280;28372;56.832;60.658;2022-08-20T00:41:26;98954.97;;;19.13;58.12
42727;BME280;28372;56.832;60.658;2022-08-20T00:44:08;98959.13;;;19.36;60.66
42727;BME280;28372;56.832;60.658;2022-08-20T00:46:37;98971.38;;;19.17;58.97
42727;BME280;28372;56.832;60.658;2022-08-20T00:49:07;98966.69;;;19.17;59.04
42727;BME280;28372;56.832;60.658;2022-08-20T00:51:44;98976.81;;;19.28;60.42
42727;BME280;28372;56.832;60.658;2022-08-20T00:54:18;98965.84;;;19.24;59.29
42727;BME280;28372;56.832;60.658;2022-08-20T00:56:54;98969.75;;;19.27;58.05
42727;BME280;28372;56.832;60.658;2022-08-20T00:59:26;98976.41;;;19.29;58.08
42727;BME280;28372;56.832;60.658;2022-08-20T01:01:54;98969.81;;;19.20;57.71
42727;BME280;28372;56.832;60.658;2022-08-20T01:04:26;98978.78;;;19.27;57.76
42727;BME280;28372;56.832;60.658;2022-08-20T01:06:54;98974.13;;;19.21;58.03
42727;BME280;28372;56.832;60.658;2022-08-20T01:09:23;98972.13;;;19.25;57.44
42727;BME280;28372;56.832;60.658;2022-08-20T01:12:12;98962.72;;;19.26;57.63
42727;BME280;28372;56.832;60.658;2022-08-20T01:14:44;98966.19;;;19.33;59.13
42727;BME280;28372;56.832;60.658;2022-08-20T01:17:19;98975.94;;;19.42;59.03
42727;BME280;28372;56.832;60.658;2022-08-20T01:19:54;98970.88;;;19.40;59.00
42727;BME280;28372;56.832;60.658;2022-08-20T01:22:37;98959.78;;;19.51;58.64
42727;BME280;28372;56.832;60.658;2022-08-20T01:25:51;98964.41;;;19.65;57.74
42727;BME280;28372;56.832;60.658;2022-08-20T01:28:33;98970.69;;;19.62;57.50
42727;BME280;28372;56.832;60.658;2022-08-20T01:31:03;98972.03;;;19.43;56.38
42727;BME280;28372;56.832;60.658;2022-08-20T01:33:31;98975.97;;;19.38;56.07
42727;BME280;28372;56.832;60.658;2022-08-20T01:35:58;98975.97;;;19.38;55.88
42727;BME280;28372;56.832;60.658;2022-08-20T01:38:28;98982.63;;;19.41;57.00
42727;BME280;28372;56.832;60.658;2022-08-20T01:43:44;98973.56;;;19.44;57.05
42727;BME280;28372;56.832;60.658;2022-08-20T01:46:16;98973.97;;;19.42;56.21
42727;BME280;28372;56.832;60.658;2022-08-20T01:48:45;98968.50;;;19.42;55.86
42727;BME280;28372;56.832;60.658;2022-08-20T01:51:19;98964.91;;;19.52;56.63
42727;BME280;28372;56.832;60.658;2022-08-20T01:53:50;98972.69;;;19.61;56.12
42727;BME280;28372;56.832;60.658;2022-08-20T01:56:23;98976.13;;;19.69;56.30
42727;BME280;28372;56.832;60.658;2022-08-20T01:58:54;98973.78;;;19.67;55.25
42727;BME280;28372;56.832;60.658;2022-08-20T02:03:56;98969.41;;;19.81;54.49
42727;BME280;28372;56.832;60.658;2022-08-20T02:06:25;98970.53;;;19.87;54.72
42727;BME280;28372;56.832;60.658;2022-08-20T02:08:54;98973.97;;;19.98;54.58
42727;BME280;28372;56.832;60.658;2022-08-20T02:11:23;98966.88;;;20.05;53.61
42727;BME280;28372;56.832;60.658;2022-08-20T02:13:52;98972.63;;;20.17;53.79
42727;BME280;28372;56.832;60.658;2022-08-20T02:16:22;98972.63;;;20.17;53.58
42727;BME280;28372;56.832;60.658;2022-08-20T02:18:52;98972.13;;;20.26;53.28
42727;BME280;28372;56.832;60.658;2022-08-20T02:21:24;98968.81;;;20.42;53.48
42727;BME280;28372;56.832;60.658;2022-08-20T02:23:54;98973.09;;;20.47;52.75
42727;BME280;28372;56.832;60.658;2022-08-20T02:26:23;98968.22;;;20.62;52.36
42727;BME280;28372;56.832;60.658;2022-08-20T02:28:52;98967.34;;;20.72;51.65
42727;BME280;28372;56.832;60.658;2022-08-20T02:31:21;98971.50;;;20.84;51.37
42727;BME280;28372;56.832;60.658;2022-08-20T02:33:49;98966.31;;;20.93;51.15
42727;BME280;28372;56.832;60.658;2022-08-20T02:36:38;98971.59;;;21.08;50.73
42727;BME280;28372;56.832;60.658;2022-08-20T02:39:09;98974.06;;;21.56;50.05
42727;BME280;28372;56.832;60.658;2022-08-20T02:41:38;98973.88;;;22.15;48.39
42727;BME280;28372;56.832;60.658;2022-08-20T02:44:07;98968.38;;;22.38;46.50
42727;BME280;28372;56.832;60.658;2022-08-20T02:46:35;98968.03;;;22.56;45.73
42727;BME280;28372;56.832;60.658;2022-08-20T02:49:03;98976.84;;;23.08;46.17
42727;BME280;28372;56.832;60.658;2022-08-20T02:51:30;98968.66;;;23.74;44.52
42727;BME280;28372;56.832;60.658;2022-08-20T02:53:58;98964.81;;;24.46;43.09
42727;BME280;28372;56.832;60.658;2022-08-20T02:56:26;98965.84;;;25.08;41.64
42727;BME280;28372;56.832;60.658;2022-08-20T02:58:53;98964.31;;;25.71;39.82
42727;BME280;28372;56.832;60.658;2022-08-20T03:01:21;98956.13;;;26.38;38.57
42727;BME280;28372;56.832;60.658;2022-08-20T03:03:49;98952.66;;;26.91;37.65
42727;BME280;28372;56.832;60.658;2022-08-20T03:06:16;98961.84;;;27.50;36.19
42727;BME280;28372;56.832;60.658;2022-08-20T03:08:44;98955.50;;;28.00;35.41
42727;BME280;28372;56.832;60.658;2022-08-20T03:11:11;98961.00;;;28.55;34.21
42727;BME280;28372;56.832;60.658;2022-08-20T03:13:39;98954.88;;;29.03;33.34
42727;BME280;28372;56.832;60.658;2022-08-20T03:16:07;98956.09;;;29.54;32.49
42727;BME280;28372;56.832;60.658;2022-08-20T03:18:38;98955.88;;;29.92;31.47
42727;BME280;28372;56.832;60.658;2022-08-20T03:21:07;98947.69;;;30.42;30.93
42727;BME280;28372;56.832;60.658;2022-08-20T03:23:36;98942.53;;;30.95;29.98
42727;BME280;28372;56.832;60.658;2022-08-20T03:26:09;98947.78;;;31.22;29.38
42727;BME280;28372;56.832;60.658;2022-08-20T03:28:37;98943.91;;;31.70;28.97
42727;BME280;28372;56.832;60.658;2022-08-20T03:31:04;98932.69;;;32.11;28.63
42727;BME280;28372;56.832;60.658;2022-08-20T03:33:32;98937.16;;;32.50;28.07
42727;BME280;28372;56.832;60.658;2022-08-20T03:36:00;98933.41;;;32.85;27.53
42727;BME280;28372;56.832;60.658;2022-08-20T03:38:28;98930.66;;;33.23;26.92
42727;BME280;28372;56.832;60.658;2022-08-20T03:41:00;98940.03;;;33.57;26.38
42727;BME280;28372;56.832;60.658;2022-08-20T03:43:28;98938.97;;;34.04;25.76
42727;BME280;28372;56.832;60.658;2022-08-20T03:45:56;98926.00;;;34.23;25.34
42727;BME280;28372;56.832;60.658;2022-08-20T03:48:24;98928.34;;;34.59;25.23
42727;BME280;28372;56.832;60.658;2022-08-20T03:50:51;98920.47;;;34.80;24.71
42727;BME280;28372;56.832;60.658;2022-08-20T03:53:19;98933.19;;;35.15;24.60
42727;BME280;28372;56.832;60.658;2022-08-20T03:55:47;98944.66;;;35.51;24.15
42727;BME280;28372;56.832;60.658;2022-08-20T03:58:21;98943.78;;;35.79;23.77
42727;BME280;28372;56.832;60.658;2022-08-20T04:01:04;98948.28;;;36.05;23.32
42727;BME280;28372;56.832;60.658;2022-08-20T04:03:33;98956.81;;;36.41;22.83
42727;BME280;28372;56.832;60.658;2022-08-20T04:06:00;98947.66;;;36.65;22.86
42727;BME280;28372;56.832;60.658;2022-08-20T04:08:28;98944.63;;;36.93;22.71
42727;BME280;28372;56.832;60.658;2022-08-20T04:10:57;98944.13;;;37.19;22.19
42727;BME280;28372;56.832;60.658;2022-08-20T04:13:28;98948.69;;;37.28;22.03
42727;BME280;28372;56.832;60.658;2022-08-20T04:15:56;98941.22;;;37.56;21.67
42727;BME280;28372;56.832;60.658;2022-08-20T04:18:25;98942.66;;;37.87;21.59
42727;BME280;28372;56.832;60.658;2022-08-20T04:20:53;98943.25;;;38.18;21.59
42727;BME280;28372;56.832;60.658;2022-08-20T04:23:21;98943.94;;;38.43;20.85
42727;BME280;28372;56.832;60.658;2022-08-20T04:25:49;98953.16;;;38.05;21.27
42727;BME280;28372;56.832;60.658;2022-08-20T04:28:19;98959.59;;;37.87;21.69
42727;BME280;28372;56.832;60.658;2022-08-20T04:30:55;98950.13;;;38.03;21.26
42727;BME280;28372;56.832;60.658;2022-08-20T04:33:23;98958.78;;;37.67;21.70
42727;BME280;28372;56.832;60.658;2022-08-20T04:36:02;98951.19;;;38.19;21.43
42727;BME280;28372;56.832;60.658;2022-08-20T04:38:32;98956.78;;;38.06;21.19
42727;BME280;28372;56.832;60.658;2022-08-20T04:41:18;98953.53;;;38.53;21.23
42727;BME280;28372;56.832;60.658;2022-08-20T04:43:50;98938.53;;;38.91;20.70
42727;BME280;28372;56.832;60.658;2022-08-20T04:46:18;98947.88;;;39.32;20.36
42727;BME280;28372;56.832;60.658;2022-08-20T04:48:46;98936.38;;;38.84;20.42
42727;BME280;28372;56.832;60.658;2022-08-20T04:51:17;98945.56;;;38.71;20.85
42727;BME280;28372;56.832;60.658;2022-08-20T04:53:50;98951.63;;;39.07;20.81
42727;BME280;28372;56.832;60.658;2022-08-20T04:56:21;98949.59;;;39.48;20.29
42727;BME280;28372;56.832;60.658;2022-08-20T04:58:55;98941.47;;;39.71;20.09
42727;BME280;28372;56.832;60.658;2022-08-20T05:01:24;98938.78;;;40.14;19.78
42727;BME280;28372;56.832;60.658;2022-08-20T05:03:53;98929.94;;;40.38;19.81
42727;BME280;28372;56.832;60.658;2022-08-20T05:06:24;98939.44;;;40.62;19.53
42727;BME280;28372;56.832;60.658;2022-08-20T05:08:53;98930.78;;;40.89;19.61
42727;BME280;28372;56.832;60.658;2022-08-20T05:11:22;98936.91;;;41.22;19.15
42727;BME280;28372;56.832;60.658;2022-08-20T05:14:07;98940.06;;;41.39;18.42
42727;BME280;28372;56.832;60.658;2022-08-20T05:16:37;98935.97;;;41.85;18.58
42727;BME280;28372;56.832;60.658;2022-08-20T05:19:08;98929.19;;;42.11;18.20
42727;BME280;28372;56.832;60.658;2022-08-20T05:21:37;98927.97;;;42.35;17.95
42727;BME280;28372;56.832;60.658;2022-08-20T05:24:05;98929.16;;;42.71;18.23
42727;BME280;28372;56.832;60.658;2022-08-20T05:26:33;98918.88;;;42.91;17.71
42727;BME280;28372;56.832;60.658;2022-08-20T05:29:02;98913.41;;;43.08;17.57
42727;BME280;28372;56.832;60.658;2022-08-20T05:31:32;98912.00;;;43.25;17.32
42727;BME280;28372;56.832;60.658;2022-08-20T05:34:05;98912.16;;;43.35;17.86
42727;BME280;28372;56.832;60.658;2022-08-20T05:36:40;98910.47;;;43.47;17.23
42727;BME280;28372;56.832;60.658;2022-08-20T05:39:08;98911.31;;;43.73;16.75
42727;BME280;28372;56.832;60.658;2022-08-20T05:41:37;98904.84;;;43.72;16.92
42727;BME280;28372;56.832;60.658;2022-08-20T05:44:07;98893.72;;;44.00;16.21
42727;BME280;28372;56.832;60.658;2022-08-20T05:46:42;98893.94;;;44.27;16.63
42727;BME280;28372;56.832;60.658;2022-08-20T05:49:20;98901.00;;;44.18;16.60
42727;BME280;28372;56.832;60.658;2022-08-20T05:51:48;98894.22;;;43.73;16.81
42727;BME280;28372;56.832;60.658;2022-08-20T05:54:17;98888.06;;;43.36;17.04
42727;BME280;28372;56.832;60.658;2022-08-20T05:56:44;98901.03;;;42.98;16.90
42727;BME280;28372;56.832;60.658;2022-08-20T05:59:12;98900.69;;;42.78;17.16
42727;BME280;28372;56.832;60.658;2022-08-20T06:01:41;98915.44;;;42.23;17.68
42727;BME280;28372;56.832;60.658;2022-08-20T06:04:09;98909.56;;;42.52;17.73
42727;BME280;28372;56.832;60.658;2022-08-20T06:07:02;98909.66;;;41.92;17.96
42727;BME280;28372;56.832;60.658;2022-08-20T06:09:31;98919.09;;;41.87;18.34
42727;BME280;28372;56.832;60.658;2022-08-20T06:12:04;98920.88;;;41.69;18.17
42727;BME280;28372;56.832;60.658;2022-08-20T06:14:34;98894.84;;;41.41;18.83
42727;BME280;28372;56.832;60.658;2022-08-20T06:17:07;98901.63;;;41.38;18.84
42727;BME280;28372;56.832;60.658;2022-08-20T06:19:38;98894.59;;;41.68;18.47
42727;BME280;28372;56.832;60.658;2022-08-20T06:22:11;98894.91;;;42.17;18.61
42727;BME280;28372;56.832;60.658;2022-08-20T06:24:47;98887.97;;;42.49;18.35
42727;BME280;28372;56.832;60.658;2022-08-20T06:27:15;98885.50;;;42.84;17.92
42727;BME280;28372;56.832;60.658;2022-08-20T06:29:43;98885.28;;;43.20;18.02
42727;BME280;28372;56.832;60.658;2022-08-20T06:32:11;98877.88;;;43.17;17.46
42727;BME280;28372;56.832;60.658;2022-08-20T06:34:39;98882.47;;;42.97;18.12
42727;BME280;28372;56.832;60.658;2022-08-20T06:37:25;98883.56;;;43.17;17.66
42727;BME280;28372;56.832;60.658;2022-08-20T06:40:13;98884.88;;;43.24;17.92
42727;BME280;28372;56.832;60.658;2022-08-20T06:42:41;98887.72;;;43.80;17.63
42727;BME280;28372;56.832;60.658;2022-08-20T06:45:22;98886.53;;;43.91;17.98
42727;BME280;28372;56.832;60.658;2022-08-20T06:47:53;98892.75;;;44.30;17.47
42727;BME280;28372;56.832;60.658;2022-08-20T06:50:34;98897.22;;;44.15;17.49
42727;BME280;28372;56.832;60.658;2022-08-20T06:53:14;98898.97;;;43.70;18.07
42727;BME280;28372;56.832;60.658;2022-08-20T06:55:46;98898.09;;;44.76;16.67
42727;BME280;28372;56.832;60.658;2022-08-20T06:58:15;98899.06;;;44.96;16.20
42727;BME280;28372;56.832;60.658;2022-08-20T07:01:02;98884.66;;;45.29;16.44
42727;BME280;28372;56.832;60.658;2022-08-20T07:03:40;98897.94;;;44.74;16.10
42727;BME280;28372;56.832;60.658;2022-08-20T07:06:25;98882.25;;;44.07;16.55
42727;BME280;28372;56.832;60.658;2022-08-20T07:08:54;98885.75;;;43.57;17.63
42727;BME280;28372;56.832;60.658;2022-08-20T07:11:22;98870.13;;;42.87;17.78
42727;BME280;28372;56.832;60.658;2022-08-20T07:13:55;98874.88;;;42.30;18.51
42727;BME280;28372;56.832;60.658;2022-08-20T07:16:24;98872.22;;;41.65;18.74
42727;BME280;28372;56.832;60.658;2022-08-20T07:18:52;98871.41;;;41.20;19.66
42727;BME280;28372;56.832;60.658;2022-08-20T07:21:19;98874.16;;;41.04;19.86
42727;BME280;28372;56.832;60.658;2022-08-20T07:23:47;98874.31;;;40.70;20.59
42727;BME280;28372;56.832;60.658;2022-08-20T07:26:16;98875.94;;;40.44;21.14
42727;BME280;28372;56.832;60.658;2022-08-20T07:28:44;98878.34;;;40.19;21.55
42727;BME280;28372;56.832;60.658;2022-08-20T07:31:11;98856.78;;;39.81;21.60
42727;BME280;28372;56.832;60.658;2022-08-20T07:34:01;98859.22;;;39.50;21.97
42727;BME280;28372;56.832;60.658;2022-08-20T07:36:29;98856.75;;;39.33;22.38
42727;BME280;28372;56.832;60.658;2022-08-20T07:38:57;98855.81;;;39.31;22.59
42727;BME280;28372;56.832;60.658;2022-08-20T07:41:31;98857.97;;;39.24;22.88
42727;BME280;28372;56.832;60.658;2022-08-20T07:43:59;98850.97;;;39.12;23.22
42727;BME280;28372;56.832;60.658;2022-08-20T07:46:27;98853.50;;;38.89;22.78
42727;BME280;28372;56.832;60.658;2022-08-20T07:48:57;98859.91;;;38.76;22.77
42727;BME280;28372;56.832;60.658;2022-08-20T07:51:25;98850.53;;;38.68;23.71
42727;BME280;28372;56.832;60.658;2022-08-20T07:53:53;98850.94;;;38.59;23.88
42727;BME280;28372;56.832;60.658;2022-08-20T07:56:22;98865.59;;;38.57;23.35
42727;BME280;28372;56.832;60.658;2022-08-20T07:58:53;98865.47;;;38.49;22.57
42727;BME280;28372;56.832;60.658;2022-08-20T08:01:25;98861.66;;;38.47;23.24
42727;BME280;28372;56.832;60.658;2022-08-20T08:03:54;98853.69;;;38.32;23.58
42727;BME280;28372;56.832;60.658;2022-08-20T08:06:25;98855.53;;;38.29;23.37
42727;BME280;28372;56.832;60.658;2022-08-20T08:09:00;98860.50;;;38.23;23.93
42727;BME280;28372;56.832;60.658;2022-08-20T08:11:30;98851.31;;;38.17;23.67
42727;BME280;28372;56.832;60.658;2022-08-20T08:14:00;98865.53;;;38.11;23.36
42727;BME280;28372;56.832;60.658;2022-08-20T08:16:28;98856.84;;;38.09;23.75
42727;BME280;28372;56.832;60.658;2022-08-20T08:18:57;98864.03;;;38.10;23.72
42727;BME280;28372;56.832;60.658;2022-08-20T08:21:26;98851.75;;;38.08;24.33
42727;BME280;28372;56.832;60.658;2022-08-20T08:23:54;98855.31;;;38.08;23.75
42727;BME280;28372;56.832;60.658;2022-08-20T08:26:22;98850.59;;;37.97;23.70
42727;BME280;28372;56.832;60.658;2022-08-20T08:28:49;98851.38;;;37.98;24.10
42727;BME280;28372;56.832;60.658;2022-08-20T08:31:17;98848.84;;;37.94;23.87
42727;BME280;28372;56.832;60.658;2022-08-20T08:33:45;98847.09;;;37.91;24.02
42727;BME280;28372;56.832;60.658;2022-08-20T08:36:14;98854.50;;;37.94;24.54
42727;BME280;28372;56.832;60.658;2022-08-20T08:38:43;98839.84;;;37.96;24.30
42727;BME280;28372;56.832;60.658;2022-08-20T08:43:50;98836.78;;;37.94;24.35
42727;BME280;28372;56.832;60.658;2022-08-20T08:46:23;98833.34;;;38.01;24.47
42727;BME280;28372;56.832;60.658;2022-08-20T08:48:55;98833.06;;;37.85;24.58
42727;BME280;28372;56.832;60.658;2022-08-20T08:51:51;98832.97;;;38.10;23.60
42727;BME280;28372;56.832;60.658;2022-08-20T08:54:25;98829.84;;;37.57;24.01
42727;BME280;28372;56.832;60.658;2022-08-20T08:56:53;98813.28;;;37.28;24.39
42727;BME280;28372;56.832;60.658;2022-08-20T08:59:21;98820.84;;;37.14;24.72
42727;BME280;28372;56.832;60.658;2022-08-20T09:01:56;98798.44;;;37.28;24.04
42727;BME280;28372;56.832;60.658;2022-08-20T09:04:33;98805.94;;;37.19;24.85
42727;BME280;28372;56.832;60.658;2022-08-20T09:07:02;98803.50;;;36.85;24.39
42727;BME280;28372;56.832;60.658;2022-08-20T09:09:35;98813.25;;;36.84;25.22
42727;BME280;28372;56.832;60.658;2022-08-20T09:12:12;98802.19;;;36.86;24.61
42727;BME280;28372;56.832;60.658;2022-08-20T09:14:40;98794.06;;;36.52;24.52
42727;BME280;28372;56.832;60.658;2022-08-20T09:17:10;98790.94;;;36.31;24.60
42727;BME280;28372;56.832;60.658;2022-08-20T09:19:38;98795.63;;;36.17;24.74
42727;BME280;28372;56.832;60.658;2022-08-20T09:22:08;98797.25;;;36.07;24.83
42727;BME280;28372;56.832;60.658;2022-08-20T09:24:36;98787.06;;;36.04;24.36
42727;BME280;28372;56.832;60.658;2022-08-20T09:27:03;98795.09;;;35.89;24.07
42727;BME280;28372;56.832;60.658;2022-08-20T09:29:31;98794.88;;;35.81;24.52
42727;BME280;28372;56.832;60.658;2022-08-20T09:32:08;98792.81;;;35.87;24.73
42727;BME280;28372;56.832;60.658;2022-08-20T09:34:37;98782.44;;;35.65;24.43
42727;BME280;28372;56.832;60.658;2022-08-20T09:37:05;98774.81;;;35.54;24.25
42727;BME280;28372;56.832;60.658;2022-08-20T09:39:33;98777.66;;;35.48;24.89
42727;BME280;28372;56.832;60.658;2022-08-20T09:44:40;98767.00;;;35.36;25.53
42727;BME280;28372;56.832;60.658;2022-08-20T09:47:08;98752.16;;;35.29;25.67
42727;BME280;28372;56.832;60.658;2022-08-20T09:49:36;98747.91;;;35.11;25.61
42727;BME280;28372;56.832;60.658;2022-08-20T09:52:06;98747.13;;;35.16;25.73
42727;BME280;28372;56.832;60.658;2022-08-20T09:54:35;98752.53;;;35.09;25.38
42727;BME280;28372;56.832;60.658;2022-08-20T09:57:05;98751.25;;;35.10;25.87
42727;BME280;28372;56.832;60.658;2022-08-20T09:59:35;98748.00;;;34.94;25.90
42727;BME280;28372;56.832;60.658;2022-08-20T10:02:03;98742.16;;;34.81;25.76
42727;BME280;28372;56.832;60.658;2022-08-20T10:04:31;98734.22;;;34.74;25.78
42727;BME280;28372;56.832;60.658;2022-08-20T10:06:58;98739.59;;;34.66;25.92
42727;BME280;28372;56.832;60.658;2022-08-20T10:09:26;98726.13;;;34.47;25.64
42727;BME280;28372;56.832;60.658;2022-08-20T10:11:53;98714.94;;;34.30;26.01
42727;BME280;28372;56.832;60.658;2022-08-20T10:14:21;98724.34;;;34.27;26.01
42727;BME280;28372;56.832;60.658;2022-08-20T10:16:57;98719.50;;;34.39;26.38
42727;BME280;28372;56.832;60.658;2022-08-20T10:19:27;98723.06;;;34.17;26.42
42727;BME280;28372;56.832;60.658;2022-08-20T10:21:57;98719.75;;;34.13;26.50
42727;BME280;28372;56.832;60.658;2022-08-20T10:24:25;98725.38;;;34.13;26.04
42727;BME280;28372;56.832;60.658;2022-08-20T10:26:55;98719.00;;;34.12;26.03
42727;BME280;28372;56.832;60.658;2022-08-20T10:29:25;98723.09;;;34.00;26.14
42727;BME280;28372;56.832;60.658;2022-08-20T10:31:54;98719.53;;;33.83;26.06
42727;BME280;28372;56.832;60.658;2022-08-20T10:34:24;98728.94;;;33.74;26.32
42727;BME280;28372;56.832;60.658;2022-08-20T10:36:51;98721.78;;;33.61;26.48
42727;BME280;28372;56.832;60.658;2022-08-20T10:39:19;98720.47;;;33.45;26.57
42727;BME280;28372;56.832;60.658;2022-08-20T10:41:47;98720.72;;;33.36;26.89
42727;BME280;28372;56.832;60.658;2022-08-20T10:44:14;98721.72;;;33.27;27.30
42727;BME280;28372;56.832;60.658;2022-08-20T10:46:43;98718.84;;;33.22;27.20
42727;BME280;28372;56.832;60.658;2022-08-20T10:49:11;98706.59;;;33.13;27.58
42727;BME280;28372;56.832;60.658;2022-08-20T10:51:39;98717.28;;;33.09;27.81
42727;BME280;28372;56.832;60.658;2022-08-20T10:54:06;98707.06;;;33.01;27.88
42727;BME280;28372;56.832;60.658;2022-08-20T10:56:38;98722.31;;;32.88;27.58
42727;BME280;28372;56.832;60.658;2022-08-20T10:59:06;98726.03;;;32.74;27.30
42727;BME280;28372;56.832;60.658;2022-08-20T11:01:34;98728.00;;;32.62;28.13
42727;BME280;28372;56.832;60.658;2022-08-20T11:04:02;98714.97;;;32.53;27.96
42727;BME280;28372;56.832;60.658;2022-08-20T11:06:31;98724.81;;;32.43;28.19
42727;BME280;28372;56.832;60.658;2022-08-20T11:08:58;98726.03;;;32.31;28.29
42727;BME280;28372;56.832;60.658;2022-08-20T11:11:26;98721.38;;;32.22;28.65
42727;BME280;28372;56.832;60.658;2022-08-20T11:13:53;98727.44;;;32.15;28.74
42727;BME280;28372;56.832;60.658;2022-08-20T11:16:22;98727.88;;;32.07;28.86
42727;BME280;28372;56.832;60.658;2022-08-20T11:18:49;98718.34;;;31.93;29.08
42727;BME280;28372;56.832;60.658;2022-08-20T11:21:17;98724.59;;;31.83;29.48
42727;BME280;28372;56.832;60.658;2022-08-20T11:23:44;98741.28;;;31.71;29.69
42727;BME280;28372;56.832;60.658;2022-08-20T11:26:20;98738.31;;;31.81;29.58
42727;BME280;28372;56.832;60.658;2022-08-20T11:28:50;98756.06;;;31.51;30.54
42727;BME280;28372;56.832;60.658;2022-08-20T11:31:17;98743.16;;;31.33;31.78
42727;BME280;28372;56.832;60.658;2022-08-20T11:33:45;98737.69;;;31.24;30.98
42727;BME280;28372;56.832;60.658;2022-08-20T11:36:12;98741.66;;;31.12;30.94
42727;BME280;28372;56.832;60.658;2022-08-20T11:38:40;98741.13;;;30.92;32.06
42727;BME280;28372;56.832;60.658;2022-08-20T11:41:07;98724.22;;;30.81;31.74
42727;BME280;28372;56.832;60.658;2022-08-20T11:43:34;98727.91;;;30.72;31.27
42727;BME280;28372;56.832;60.658;2022-08-20T11:46:02;98717.22;;;30.50;31.49
42727;BME280;28372;56.832;60.658;2022-08-20T11:48:30;98724.53;;;30.48;33.03
42727;BME280;28372;56.832;60.658;2022-08-20T11:50:57;98733.94;;;30.50;32.80
42727;BME280;28372;56.832;60.658;2022-08-20T11:53:25;98728.78;;;30.43;33.54
42727;BME280;28372;56.832;60.658;2022-08-20T11:55:52;98738.28;;;30.36;34.33
42727;BME280;28372;56.832;60.658;2022-08-20T11:58:20;98718.66;;;30.31;34.05
42727;BME280;28372;56.832;60.658;2022-08-20T12:00:47;98736.88;;;30.26;33.97
42727;BME280;28372;56.832;60.658;2022-08-20T12:03:15;98734.50;;;30.04;33.70
42727;BME280;28372;56.832;60.658;2022-08-20T12:05:44;98738.63;;;29.94;34.27
42727;BME280;28372;56.832;60.658;2022-08-20T12:08:14;98739.00;;;29.86;34.44
42727;BME280;28372;56.832;60.658;2022-08-20T12:10:58;98744.75;;;29.83;34.79
42727;BME280;28372;56.832;60.658;2022-08-20T12:13:27;98755.03;;;29.62;34.84
42727;BME280;28372;56.832;60.658;2022-08-20T12:16:13;98767.69;;;29.48;35.07
42727;BME280;28372;56.832;60.658;2022-08-20T12:18:41;98763.44;;;29.37;34.71
42727;BME280;28372;56.832;60.658;2022-08-20T12:21:09;98764.84;;;29.33;35.07
42727;BME280;28372;56.832;60.658;2022-08-20T12:23:36;98757.19;;;29.28;35.21
42727;BME280;28372;56.832;60.658;2022-08-20T12:26:04;98755.91;;;29.29;34.85
42727;BME280;28372;56.832;60.658;2022-08-20T12:28:32;98744.19;;;29.25;35.31
42727;BME280;28372;56.832;60.658;2022-08-20T12:30:59;98738.13;;;29.26;35.37
42727;BME280;28372;56.832;60.658;2022-08-20T12:33:27;98739.69;;;29.27;35.03
42727;BME280;28372;56.832;60.658;2022-08-20T12:35:56;98737.19;;;29.29;35.90
42727;BME280;28372;56.832;60.658;2022-08-20T12:38:24;98739.06;;;29.23;35.68
42727;BME280;28372;56.832;60.658;2022-08-20T12:40:51;98734.44;;;29.20;35.61
42727;BME280;28372;56.832;60.658;2022-08-20T12:43:19;98743.66;;;29.11;35.60
42727;BME280;28372;56.832;60.658;2022-08-20T12:45:51;98744.97;;;29.01;36.68
42727;BME280;28372;56.832;60.658;2022-08-20T12:48:18;98750.28;;;28.89;37.27
42727;BME280;28372;56.832;60.658;2022-08-20T12:50:47;98746.00;;;28.79;36.90
42727;BME280;28372;56.832;60.658;2022-08-20T12:53:16;98754.13;;;28.68;36.76
42727;BME280;28372;56.832;60.658;2022-08-20T12:55:44;98764.03;;;28.60;37.40
42727;BME280;28372;56.832;60.658;2022-08-20T12:58:12;98755.25;;;28.52;38.53
42727;BME280;28372;56.832;60.658;2022-08-20T13:00:42;98761.44;;;28.56;39.37
42727;BME280;28372;56.832;60.658;2022-08-20T13:03:16;98739.22;;;28.37;40.02
42727;BME280;28372;56.832;60.658;2022-08-20T13:05:44;98742.81;;;28.29;41.12
42727;BME280;28372;56.832;60.658;2022-08-20T13:08:12;98746.56;;;28.16;40.77
42727;BME280;28372;56.832;60.658;2022-08-20T13:10:41;98745.97;;;28.12;42.83
42727;BME280;28372;56.832;60.658;2022-08-20T13:13:12;98748.31;;;27.95;42.75
42727;BME280;28372;56.832;60.658;2022-08-20T13:15:40;98750.94;;;27.90;43.14
42727;BME280;28372;56.832;60.658;2022-08-20T13:18:08;98746.81;;;27.76;42.82